sensor_id;sensor_type;location;lat;lon;timestamp;P1;durP1;ratioP1;P2;durP2;ratioP2
76176;SDS011;64938;47.696;8.066;2023-08-30T00:01:04;5.03;;;4.63;;
76176;SDS011;64938;47.696;8.066;2023-08-30T00:03:33;6.13;;;5.53;;
76176;SDS011;64938;47.696;8.066;2023-08-30T00:06:05;6.93;;;6.33;;
76176;SDS011;64938;47.696;8.066;2023-08-30T00:08:33;8.70;;;7.90;;
76176;SDS011;64938;47.696;8.066;2023-08-30T00:10:59;8.63;;;7.93;;
76176;SDS011;64938;47.696;8.066;2023-08-30T00:13:30;9.07;;;8.37;;
76176;SDS011;64938;47.696;8.066;2023-08-30T00:15:57;10.33;;;9.30;;
76176;SDS011;64938;47.696;8.066;2023-08-30T00:18:23;8.40;;;7.70;;
76176;SDS011;64938;47.696;8.066;2023-08-30T00:20:48;8.70;;;7.90;;
76176;SDS011;64938;47.696;8.066;2023-08-30T00:23:14;8.73;;;7.93;;
76176;SDS011;64938;47.696;8.066;2023-08-30T00:25:41;8.20;;;7.40;;
76176;SDS011;64938;47.696;8.066;2023-08-30T00:28:09;7.73;;;7.13;;
76176;SDS011;64938;47.696;8.066;2023-08-30T00:30:34;7.40;;;6.73;;
76176;SDS011;64938;47.696;8.066;2023-08-30T00:33:02;9.07;;;8.27;;
76176;SDS011;64938;47.696;8.066;2023-08-30T00:35:27;8.30;;;7.50;;
76176;SDS011;64938;47.696;8.066;2023-08-30T00:37:53;8.53;;;7.40;;
76176;SDS011;64938;47.696;8.066;2023-08-30T00:40:22;8.20;;;7.40;;
76176;SDS011;64938;47.696;8.066;2023-08-30T00:42:49;7.93;;;7.27;;
76176;SDS011;64938;47.696;8.066;2023-08-30T00:45:15;8.50;;;7.60;;
76176;SDS011;64938;47.696;8.066;2023-08-30T00:47:40;8.53;;;7.83;;
76176;SDS011;64938;47.696;8.066;2023-08-30T00:50:06;8.13;;;7.53;;
76176;SDS011;64938;47.696;8.066;2023-08-30T00:52:33;8.57;;;7.60;;
76176;SDS011;64938;47.696;8.066;2023-08-30T00:54:59;7.80;;;7.10;;
76176;SDS011;64938;47.696;8.066;2023-08-30T00:57:29;8.80;;;7.90;;
76176;SDS011;64938;47.696;8.066;2023-08-30T00:59:57;8.07;;;7.37;;
76176;SDS011;64938;47.696;8.066;2023-08-30T01:02:31;8.80;;;7.97;;
76176;SDS011;64938;47.696;8.066;2023-08-30T01:05:02;7.80;;;7.20;;
76176;SDS011;64938;47.696;8.066;2023-08-30T01:07:28;8.70;;;8.00;;
76176;SDS011;64938;47.696;8.066;2023-08-30T01:09:54;8.13;;;7.40;;
76176;SDS011;64938;47.696;8.066;2023-08-30T01:13:04;8.60;;;7.70;;
76176;SDS011;64938;47.696;8.066;2023-08-30T01:15:17;8.07;;;7.27;;
76176;SDS011;64938;47.696;8.066;2023-08-30T01:17:44;8.97;;;8.20;;
76176;SDS011;64938;47.696;8.066;2023-08-30T01:20:29;7.80;;;7.20;;
76176;SDS011;64938;47.696;8.066;2023-08-30T01:23:09;8.20;;;7.50;;
76176;SDS011;64938;47.696;8.066;2023-08-30T01:28:50;7.63;;;6.83;;
76176;SDS011;64938;47.696;8.066;2023-08-30T01:31:16;7.67;;;6.87;;
76176;SDS011;64938;47.696;8.066;2023-08-30T01:33:42;9.50;;;8.50;;
76176;SDS011;64938;47.696;8.066;2023-08-30T01:36:08;8.73;;;7.93;;
76176;SDS011;64938;47.696;8.066;2023-08-30T01:38:34;9.30;;;8.50;;
76176;SDS011;64938;47.696;8.066;2023-08-30T01:41:00;7.90;;;7.20;;
76176;SDS011;64938;47.696;8.066;2023-08-30T01:43:26;6.70;;;6.20;;
76176;SDS011;64938;47.696;8.066;2023-08-30T01:45:53;6.53;;;6.03;;
76176;SDS011;64938;47.696;8.066;2023-08-30T01:48:25;7.03;;;6.43;;
76176;SDS011;64938;47.696;8.066;2023-08-30T01:50:52;7.10;;;6.50;;
76176;SDS011;64938;47.696;8.066;2023-08-30T01:53:19;8.27;;;7.40;;
76176;SDS011;64938;47.696;8.066;2023-08-30T01:55:46;6.97;;;6.37;;
76176;SDS011;64938;47.696;8.066;2023-08-30T01:58:11;8.23;;;7.10;;
76176;SDS011;64938;47.696;8.066;2023-08-30T02:00:37;8.00;;;7.30;;
76176;SDS011;64938;47.696;8.066;2023-08-30T02:03:11;7.70;;;7.10;;
76176;SDS011;64938;47.696;8.066;2023-08-30T02:05:39;7.80;;;7.17;;
76176;SDS011;64938;47.696;8.066;2023-08-30T02:08:14;8.27;;;7.47;;
76176;SDS011;64938;47.696;8.066;2023-08-30T02:10:42;9.33;;;8.53;;
76176;SDS011;64938;47.696;8.066;2023-08-30T02:13:12;8.30;;;7.57;;
76176;SDS011;64938;47.696;8.066;2023-08-30T02:15:37;10.00;;;9.10;;
76176;SDS011;64938;47.696;8.066;2023-08-30T02:18:05;9.80;;;8.80;;
76176;SDS011;64938;47.696;8.066;2023-08-30T02:20:31;9.37;;;8.50;;
76176;SDS011;64938;47.696;8.066;2023-08-30T02:23:00;8.70;;;7.90;;
76176;SDS011;64938;47.696;8.066;2023-08-30T02:25:26;9.87;;;8.97;;
76176;SDS011;64938;47.696;8.066;2023-08-30T02:27:51;10.23;;;9.30;;
76176;SDS011;64938;47.696;8.066;2023-08-30T02:30:17;9.63;;;8.77;;
76176;SDS011;64938;47.696;8.066;2023-08-30T02:32:46;10.07;;;9.17;;
76176;SDS011;64938;47.696;8.066;2023-08-30T02:35:11;9.23;;;8.43;;
76176;SDS011;64938;47.696;8.066;2023-08-30T02:37:37;9.80;;;8.97;;
76176;SDS011;64938;47.696;8.066;2023-08-30T02:40:05;9.70;;;8.90;;
76176;SDS011;64938;47.696;8.066;2023-08-30T02:42:31;8.50;;;7.70;;
76176;SDS011;64938;47.696;8.066;2023-08-30T02:44:58;9.70;;;8.80;;
76176;SDS011;64938;47.696;8.066;2023-08-30T02:47:26;8.97;;;8.27;;
76176;SDS011;64938;47.696;8.066;2023-08-30T02:49:51;8.83;;;8.10;;
76176;SDS011;64938;47.696;8.066;2023-08-30T02:52:17;9.87;;;8.97;;
76176;SDS011;64938;47.696;8.066;2023-08-30T02:54:43;8.80;;;8.07;;
76176;SDS011;64938;47.696;8.066;2023-08-30T02:57:08;8.97;;;8.13;;
76176;SDS011;64938;47.696;8.066;2023-08-30T02:59:34;9.50;;;8.60;;
76176;SDS011;64938;47.696;8.066;2023-08-30T03:02:00;9.37;;;8.50;;
76176;SDS011;64938;47.696;8.066;2023-08-30T03:04:27;8.97;;;8.07;;
76176;SDS011;64938;47.696;8.066;2023-08-30T03:06:52;9.10;;;8.30;;
76176;SDS011;64938;47.696;8.066;2023-08-30T03:09:18;9.80;;;7.80;;
76176;SDS011;64938;47.696;8.066;2023-08-30T03:11:43;6.43;;;5.93;;
76176;SDS011;64938;47.696;8.066;2023-08-30T03:14:09;9.23;;;8.43;;
76176;SDS011;64938;47.696;8.066;2023-08-30T03:16:34;8.53;;;7.80;;
76176;SDS011;64938;47.696;8.066;2023-08-30T03:19:02;9.17;;;8.37;;
76176;SDS011;64938;47.696;8.066;2023-08-30T03:21:27;8.53;;;7.73;;
76176;SDS011;64938;47.696;8.066;2023-08-30T03:23:53;11.07;;;9.27;;
76176;SDS011;64938;47.696;8.066;2023-08-30T03:26:18;9.80;;;8.90;;
76176;SDS011;64938;47.696;8.066;2023-08-30T03:28:44;12.30;;;11.10;;
76176;SDS011;64938;47.696;8.066;2023-08-30T03:33:42;14.83;;;11.67;;
76176;SDS011;64938;47.696;8.066;2023-08-30T03:36:11;13.33;;;12.00;;
76176;SDS011;64938;47.696;8.066;2023-08-30T03:38:38;12.07;;;10.90;;
76176;SDS011;64938;47.696;8.066;2023-08-30T03:41:04;14.77;;;13.10;;
76176;SDS011;64938;47.696;8.066;2023-08-30T03:43:30;14.27;;;12.73;;
76176;SDS011;64938;47.696;8.066;2023-08-30T03:45:58;13.23;;;11.83;;
76176;SDS011;64938;47.696;8.066;2023-08-30T03:48:24;14.77;;;12.47;;
76176;SDS011;64938;47.696;8.066;2023-08-30T03:50:50;15.87;;;12.40;;
76176;SDS011;64938;47.696;8.066;2023-08-30T03:53:15;14.73;;;12.80;;
76176;SDS011;64938;47.696;8.066;2023-08-30T03:55:41;15.33;;;13.80;;
76176;SDS011;64938;47.696;8.066;2023-08-30T03:58:07;17.20;;;13.73;;
76176;SDS011;64938;47.696;8.066;2023-08-30T04:00:35;16.47;;;14.10;;
76176;SDS011;64938;47.696;8.066;2023-08-30T04:03:01;16.97;;;13.67;;
76176;SDS011;64938;47.696;8.066;2023-08-30T04:05:31;14.43;;;13.00;;
76176;SDS011;64938;47.696;8.066;2023-08-30T04:07:57;16.10;;;14.40;;
76176;SDS011;64938;47.696;8.066;2023-08-30T04:10:23;16.40;;;13.60;;
76176;SDS011;64938;47.696;8.066;2023-08-30T04:12:48;22.10;;;15.17;;
76176;SDS011;64938;47.696;8.066;2023-08-30T04:15:14;21.00;;;16.70;;
76176;SDS011;64938;47.696;8.066;2023-08-30T04:17:40;15.73;;;14.10;;
76176;SDS011;64938;47.696;8.066;2023-08-30T04:20:05;14.43;;;13.03;;
76176;SDS011;64938;47.696;8.066;2023-08-30T04:22:33;15.60;;;13.03;;
76176;SDS011;64938;47.696;8.066;2023-08-30T04:24:59;17.70;;;14.03;;
76176;SDS011;64938;47.696;8.066;2023-08-30T04:27:25;15.23;;;13.67;;
76176;SDS011;64938;47.696;8.066;2023-08-30T04:29:52;14.30;;;12.80;;
76176;SDS011;64938;47.696;8.066;2023-08-30T04:32:18;16.40;;;14.43;;
76176;SDS011;64938;47.696;8.066;2023-08-30T04:34:43;15.67;;;13.63;;
76176;SDS011;64938;47.696;8.066;2023-08-30T04:37:09;18.33;;;16.33;;
76176;SDS011;64938;47.696;8.066;2023-08-30T04:39:34;18.87;;;16.87;;
76176;SDS011;64938;47.696;8.066;2023-08-30T04:42:00;17.17;;;15.37;;
76176;SDS011;64938;47.696;8.066;2023-08-30T04:44:27;21.60;;;15.60;;
76176;SDS011;64938;47.696;8.066;2023-08-30T04:46:56;19.00;;;16.30;;
76176;SDS011;64938;47.696;8.066;2023-08-30T04:49:21;26.20;;;19.40;;
76176;SDS011;64938;47.696;8.066;2023-08-30T04:51:47;23.77;;;18.60;;
76176;SDS011;64938;47.696;8.066;2023-08-30T04:54:13;22.93;;;18.20;;
76176;SDS011;64938;47.696;8.066;2023-08-30T04:56:42;26.40;;;20.53;;
76176;SDS011;64938;47.696;8.066;2023-08-30T04:59:11;23.93;;;18.67;;
76176;SDS011;64938;47.696;8.066;2023-08-30T05:01:36;25.70;;;18.60;;
76176;SDS011;64938;47.696;8.066;2023-08-30T05:04:04;22.53;;;18.10;;
76176;SDS011;64938;47.696;8.066;2023-08-30T05:06:31;23.13;;;18.30;;
76176;SDS011;64938;47.696;8.066;2023-08-30T05:08:57;24.37;;;18.40;;
76176;SDS011;64938;47.696;8.066;2023-08-30T05:11:25;23.17;;;20.63;;
76176;SDS011;64938;47.696;8.066;2023-08-30T05:13:52;24.70;;;21.33;;
76176;SDS011;64938;47.696;8.066;2023-08-30T05:16:18;23.43;;;19.60;;
76176;SDS011;64938;47.696;8.066;2023-08-30T05:18:43;21.83;;;19.50;;
76176;SDS011;64938;47.696;8.066;2023-08-30T05:21:09;22.03;;;18.83;;
76176;SDS011;64938;47.696;8.066;2023-08-30T05:23:34;24.60;;;20.30;;
76176;SDS011;64938;47.696;8.066;2023-08-30T05:26:00;19.40;;;17.40;;
76176;SDS011;64938;47.696;8.066;2023-08-30T05:28:28;16.80;;;15.20;;
76176;SDS011;64938;47.696;8.066;2023-08-30T05:30:54;14.43;;;13.10;;
76176;SDS011;64938;47.696;8.066;2023-08-30T05:33:19;12.43;;;11.33;;
76176;SDS011;64938;47.696;8.066;2023-08-30T05:35:45;11.77;;;10.67;;
76176;SDS011;64938;47.696;8.066;2023-08-30T05:38:10;11.97;;;10.97;;
76176;SDS011;64938;47.696;8.066;2023-08-30T05:40:36;12.60;;;11.40;;
76176;SDS011;64938;47.696;8.066;2023-08-30T05:43:02;13.50;;;12.33;;
76176;SDS011;64938;47.696;8.066;2023-08-30T05:45:27;13.03;;;11.93;;
76176;SDS011;64938;47.696;8.066;2023-08-30T05:47:53;13.10;;;12.00;;
76176;SDS011;64938;47.696;8.066;2023-08-30T05:50:19;12.30;;;11.30;;
76176;SDS011;64938;47.696;8.066;2023-08-30T05:52:44;12.47;;;11.27;;
76176;SDS011;64938;47.696;8.066;2023-08-30T05:55:13;11.90;;;10.90;;
76176;SDS011;64938;47.696;8.066;2023-08-30T05:57:38;12.20;;;11.20;;
76176;SDS011;64938;47.696;8.066;2023-08-30T06:00:04;12.40;;;11.07;;
76176;SDS011;64938;47.696;8.066;2023-08-30T06:02:35;12.50;;;11.50;;
76176;SDS011;64938;47.696;8.066;2023-08-30T06:05:02;11.30;;;10.40;;
76176;SDS011;64938;47.696;8.066;2023-08-30T06:07:28;12.87;;;11.67;;
76176;SDS011;64938;47.696;8.066;2023-08-30T06:09:56;14.00;;;12.90;;
76176;SDS011;64938;47.696;8.066;2023-08-30T06:12:22;13.50;;;12.30;;
76176;SDS011;64938;47.696;8.066;2023-08-30T06:14:47;14.50;;;13.20;;
76176;SDS011;64938;47.696;8.066;2023-08-30T06:17:17;13.90;;;12.70;;
76176;SDS011;64938;47.696;8.066;2023-08-30T06:19:44;14.70;;;13.30;;
76176;SDS011;64938;47.696;8.066;2023-08-30T06:22:09;14.23;;;13.03;;
76176;SDS011;64938;47.696;8.066;2023-08-30T06:24:35;14.63;;;13.40;;
76176;SDS011;64938;47.696;8.066;2023-08-30T06:27:04;14.33;;;13.03;;
76176;SDS011;64938;47.696;8.066;2023-08-30T06:29:30;13.17;;;12.17;;
76176;SDS011;64938;47.696;8.066;2023-08-30T06:31:56;12.37;;;11.27;;
76176;SDS011;64938;47.696;8.066;2023-08-30T06:34:25;11.53;;;10.53;;
76176;SDS011;64938;47.696;8.066;2023-08-30T06:36:54;11.23;;;10.33;;
76176;SDS011;64938;47.696;8.066;2023-08-30T06:39:24;9.83;;;9.00;;
76176;SDS011;64938;47.696;8.066;2023-08-30T06:41:49;11.47;;;10.60;;
76176;SDS011;64938;47.696;8.066;2023-08-30T06:44:15;10.57;;;9.77;;
76176;SDS011;64938;47.696;8.066;2023-08-30T06:46:47;9.60;;;8.90;;
76176;SDS011;64938;47.696;8.066;2023-08-30T06:49:12;9.80;;;9.03;;
76176;SDS011;64938;47.696;8.066;2023-08-30T06:51:43;10.83;;;9.83;;
76176;SDS011;64938;47.696;8.066;2023-08-30T06:54:09;10.50;;;9.70;;
76176;SDS011;64938;47.696;8.066;2023-08-30T06:56:39;10.00;;;9.20;;
76176;SDS011;64938;47.696;8.066;2023-08-30T06:59:05;10.20;;;9.30;;
76176;SDS011;64938;47.696;8.066;2023-08-30T07:01:30;9.87;;;9.07;;
76176;SDS011;64938;47.696;8.066;2023-08-30T07:03:56;11.40;;;10.50;;
76176;SDS011;64938;47.696;8.066;2023-08-30T07:06:24;9.73;;;9.03;;
76176;SDS011;64938;47.696;8.066;2023-08-30T07:08:50;10.53;;;9.73;;
76176;SDS011;64938;47.696;8.066;2023-08-30T07:11:18;10.13;;;9.30;;
76176;SDS011;64938;47.696;8.066;2023-08-30T07:13:43;10.70;;;9.90;;
76176;SDS011;64938;47.696;8.066;2023-08-30T07:16:11;11.17;;;10.03;;
76176;SDS011;64938;47.696;8.066;2023-08-30T07:18:43;10.73;;;9.80;;
76176;SDS011;64938;47.696;8.066;2023-08-30T07:21:12;10.60;;;9.80;;
76176;SDS011;64938;47.696;8.066;2023-08-30T07:23:40;10.37;;;9.57;;
76176;SDS011;64938;47.696;8.066;2023-08-30T07:26:08;11.27;;;10.37;;
76176;SDS011;64938;47.696;8.066;2023-08-30T07:28:34;11.07;;;10.20;;
76176;SDS011;64938;47.696;8.066;2023-08-30T07:31:07;11.27;;;10.27;;
76176;SDS011;64938;47.696;8.066;2023-08-30T07:33:33;11.50;;;10.43;;
76176;SDS011;64938;47.696;8.066;2023-08-30T07:35:59;9.37;;;8.57;;
76176;SDS011;64938;47.696;8.066;2023-08-30T07:38:26;10.33;;;9.53;;
76176;SDS011;64938;47.696;8.066;2023-08-30T07:40:53;11.17;;;10.27;;
76176;SDS011;64938;47.696;8.066;2023-08-30T07:43:20;10.53;;;9.47;;
76176;SDS011;64938;47.696;8.066;2023-08-30T07:45:50;10.67;;;9.87;;
76176;SDS011;64938;47.696;8.066;2023-08-30T07:48:24;9.70;;;9.10;;
76176;SDS011;64938;47.696;8.066;2023-08-30T07:50:50;9.27;;;8.57;;
76176;SDS011;64938;47.696;8.066;2023-08-30T07:53:16;8.97;;;8.37;;
76176;SDS011;64938;47.696;8.066;2023-08-30T07:55:47;10.40;;;9.50;;
76176;SDS011;64938;47.696;8.066;2023-08-30T07:58:18;8.70;;;8.10;;
76176;SDS011;64938;47.696;8.066;2023-08-30T08:00:50;8.03;;;7.43;;
76176;SDS011;64938;47.696;8.066;2023-08-30T08:03:22;8.67;;;8.00;;
76176;SDS011;64938;47.696;8.066;2023-08-30T08:05:47;8.93;;;8.13;;
76176;SDS011;64938;47.696;8.066;2023-08-30T08:08:16;9.50;;;8.77;;
76176;SDS011;64938;47.696;8.066;2023-08-30T08:10:43;8.50;;;7.80;;
76176;SDS011;64938;47.696;8.066;2023-08-30T08:13:09;8.17;;;7.57;;
76176;SDS011;64938;47.696;8.066;2023-08-30T08:15:35;7.80;;;7.20;;
76176;SDS011;64938;47.696;8.066;2023-08-30T08:18:05;7.57;;;7.07;;
76176;SDS011;64938;47.696;8.066;2023-08-30T08:20:36;7.80;;;7.10;;
76176;SDS011;64938;47.696;8.066;2023-08-30T08:23:04;6.50;;;6.00;;
76176;SDS011;64938;47.696;8.066;2023-08-30T08:25:34;6.93;;;6.43;;
76176;SDS011;64938;47.696;8.066;2023-08-30T08:28:00;6.23;;;5.73;;
76176;SDS011;64938;47.696;8.066;2023-08-30T08:30:25;5.80;;;5.40;;
76176;SDS011;64938;47.696;8.066;2023-08-30T08:32:51;6.73;;;6.00;;
76176;SDS011;64938;47.696;8.066;2023-08-30T08:35:24;6.00;;;5.60;;
76176;SDS011;64938;47.696;8.066;2023-08-30T08:37:52;6.03;;;5.63;;
76176;SDS011;64938;47.696;8.066;2023-08-30T08:40:18;6.03;;;5.63;;
76176;SDS011;64938;47.696;8.066;2023-08-30T08:42:47;6.17;;;5.60;;
76176;SDS011;64938;47.696;8.066;2023-08-30T08:45:17;5.30;;;4.80;;
76176;SDS011;64938;47.696;8.066;2023-08-30T08:47:44;6.70;;;6.20;;
76176;SDS011;64938;47.696;8.066;2023-08-30T08:50:13;5.00;;;4.70;;
76176;SDS011;64938;47.696;8.066;2023-08-30T08:52:41;5.63;;;5.13;;
76176;SDS011;64938;47.696;8.066;2023-08-30T08:55:09;6.37;;;5.97;;
76176;SDS011;64938;47.696;8.066;2023-08-30T08:58:33;7.20;;;6.70;;
76176;SDS011;64938;47.696;8.066;2023-08-30T09:01:00;7.53;;;6.93;;
76176;SDS011;64938;47.696;8.066;2023-08-30T09:03:26;7.90;;;7.33;;
76176;SDS011;64938;47.696;8.066;2023-08-30T09:05:51;7.50;;;7.00;;
76176;SDS011;64938;47.696;8.066;2023-08-30T09:08:17;7.80;;;7.20;;
76176;SDS011;64938;47.696;8.066;2023-08-30T09:10:43;7.43;;;6.83;;
76176;SDS011;64938;47.696;8.066;2023-08-30T09:13:08;7.40;;;6.90;;
76176;SDS011;64938;47.696;8.066;2023-08-30T09:15:36;7.83;;;7.30;;
76176;SDS011;64938;47.696;8.066;2023-08-30T09:18:04;6.83;;;6.33;;
76176;SDS011;64938;47.696;8.066;2023-08-30T09:20:29;6.90;;;6.40;;
76176;SDS011;64938;47.696;8.066;2023-08-30T09:22:57;7.57;;;6.87;;
76176;SDS011;64938;47.696;8.066;2023-08-30T09:25:27;7.13;;;6.63;;
76176;SDS011;64938;47.696;8.066;2023-08-30T09:27:58;7.13;;;6.17;;
76176;SDS011;64938;47.696;8.066;2023-08-30T09:30:25;6.97;;;6.53;;
76176;SDS011;64938;47.696;8.066;2023-08-30T09:33:03;9.10;;;8.40;;
76176;SDS011;64938;47.696;8.066;2023-08-30T09:35:31;8.17;;;7.47;;
76176;SDS011;64938;47.696;8.066;2023-08-30T09:38:04;8.50;;;7.80;;
76176;SDS011;64938;47.696;8.066;2023-08-30T09:40:30;7.60;;;7.00;;
76176;SDS011;64938;47.696;8.066;2023-08-30T09:42:57;8.30;;;7.60;;
76176;SDS011;64938;47.696;8.066;2023-08-30T09:45:23;8.70;;;8.00;;
76176;SDS011;64938;47.696;8.066;2023-08-30T09:47:50;9.10;;;8.30;;
76176;SDS011;64938;47.696;8.066;2023-08-30T09:50:20;8.80;;;8.20;;
76176;SDS011;64938;47.696;8.066;2023-08-30T09:52:49;9.00;;;8.30;;
76176;SDS011;64938;47.696;8.066;2023-08-30T09:55:16;7.67;;;7.13;;
76176;SDS011;64938;47.696;8.066;2023-08-30T09:57:44;8.93;;;8.33;;
76176;SDS011;64938;47.696;8.066;2023-08-30T10:00:14;8.40;;;7.80;;
76176;SDS011;64938;47.696;8.066;2023-08-30T10:02:45;7.97;;;7.37;;
76176;SDS011;64938;47.696;8.066;2023-08-30T10:05:13;8.33;;;7.70;;
76176;SDS011;64938;47.696;8.066;2023-08-30T10:07:39;7.30;;;6.70;;
76176;SDS011;64938;47.696;8.066;2023-08-30T10:10:11;6.97;;;6.47;;
76176;SDS011;64938;47.696;8.066;2023-08-30T10:12:41;6.83;;;6.33;;
76176;SDS011;64938;47.696;8.066;2023-08-30T10:15:08;6.97;;;6.37;;
76176;SDS011;64938;47.696;8.066;2023-08-30T10:17:38;6.77;;;6.27;;
76176;SDS011;64938;47.696;8.066;2023-08-30T10:20:08;6.37;;;5.77;;
76176;SDS011;64938;47.696;8.066;2023-08-30T10:22:35;7.17;;;6.77;;
76176;SDS011;64938;47.696;8.066;2023-08-30T10:25:03;6.50;;;6.07;;
76176;SDS011;64938;47.696;8.066;2023-08-30T10:27:36;6.40;;;6.00;;
76176;SDS011;64938;47.696;8.066;2023-08-30T10:30:06;6.80;;;6.20;;
76176;SDS011;64938;47.696;8.066;2023-08-30T10:32:33;5.77;;;5.30;;
76176;SDS011;64938;47.696;8.066;2023-08-30T10:35:04;6.20;;;5.63;;
76176;SDS011;64938;47.696;8.066;2023-08-30T10:37:31;5.77;;;5.37;;
76176;SDS011;64938;47.696;8.066;2023-08-30T10:40:00;4.80;;;4.50;;
76176;SDS011;64938;47.696;8.066;2023-08-30T10:42:29;5.20;;;4.60;;
76176;SDS011;64938;47.696;8.066;2023-08-30T10:47:28;4.80;;;4.40;;
76176;SDS011;64938;47.696;8.066;2023-08-30T10:49:57;4.70;;;4.40;;
76176;SDS011;64938;47.696;8.066;2023-08-30T10:52:24;5.13;;;4.73;;
76176;SDS011;64938;47.696;8.066;2023-08-30T10:54:53;4.83;;;4.50;;
76176;SDS011;64938;47.696;8.066;2023-08-30T10:57:43;5.20;;;4.80;;
76176;SDS011;64938;47.696;8.066;2023-08-30T11:02:48;4.20;;;3.90;;
76176;SDS011;64938;47.696;8.066;2023-08-30T11:05:29;4.77;;;4.40;;
76176;SDS011;64938;47.696;8.066;2023-08-30T11:07:54;4.60;;;4.30;;
76176;SDS011;64938;47.696;8.066;2023-08-30T11:10:20;4.37;;;4.07;;
76176;SDS011;64938;47.696;8.066;2023-08-30T11:12:48;4.10;;;3.67;;
76176;SDS011;64938;47.696;8.066;2023-08-30T11:15:14;4.80;;;4.50;;
76176;SDS011;64938;47.696;8.066;2023-08-30T11:17:43;4.47;;;4.07;;
76176;SDS011;64938;47.696;8.066;2023-08-30T11:20:10;4.90;;;4.50;;
76176;SDS011;64938;47.696;8.066;2023-08-30T11:22:44;4.20;;;4.00;;
76176;SDS011;64938;47.696;8.066;2023-08-30T11:25:12;4.73;;;4.20;;
76176;SDS011;64938;47.696;8.066;2023-08-30T11:27:39;4.10;;;3.80;;
76176;SDS011;64938;47.696;8.066;2023-08-30T11:30:08;4.10;;;3.80;;
76176;SDS011;64938;47.696;8.066;2023-08-30T11:32:35;4.53;;;3.67;;
76176;SDS011;64938;47.696;8.066;2023-08-30T11:35:24;4.60;;;4.30;;
76176;SDS011;64938;47.696;8.066;2023-08-30T11:37:54;4.70;;;4.30;;
76176;SDS011;64938;47.696;8.066;2023-08-30T11:40:19;4.50;;;4.20;;
76176;SDS011;64938;47.696;8.066;2023-08-30T11:42:47;4.97;;;4.50;;
76176;SDS011;64938;47.696;8.066;2023-08-30T11:45:14;3.77;;;3.47;;
76176;SDS011;64938;47.696;8.066;2023-08-30T11:47:42;4.97;;;3.97;;
76176;SDS011;64938;47.696;8.066;2023-08-30T11:50:08;7.20;;;3.83;;
76176;SDS011;64938;47.696;8.066;2023-08-30T11:52:38;3.50;;;3.30;;
76176;SDS011;64938;47.696;8.066;2023-08-30T11:55:05;3.73;;;3.43;;
76176;SDS011;64938;47.696;8.066;2023-08-30T11:57:33;3.63;;;3.40;;
76176;SDS011;64938;47.696;8.066;2023-08-30T12:00:10;3.40;;;3.20;;
76176;SDS011;64938;47.696;8.066;2023-08-30T12:02:40;3.07;;;2.87;;
76176;SDS011;64938;47.696;8.066;2023-08-30T12:05:12;3.33;;;3.03;;
76176;SDS011;64938;47.696;8.066;2023-08-30T12:07:42;4.00;;;3.70;;
76176;SDS011;64938;47.696;8.066;2023-08-30T12:10:08;2.57;;;2.47;;
76176;SDS011;64938;47.696;8.066;2023-08-30T12:12:35;4.17;;;3.40;;
76176;SDS011;64938;47.696;8.066;2023-08-30T12:15:12;3.77;;;3.47;;
76176;SDS011;64938;47.696;8.066;2023-08-30T12:17:40;3.97;;;3.57;;
76176;SDS011;64938;47.696;8.066;2023-08-30T12:20:18;2.93;;;2.73;;
76176;SDS011;64938;47.696;8.066;2023-08-30T12:22:45;4.13;;;3.83;;
76176;SDS011;64938;47.696;8.066;2023-08-30T12:25:19;3.40;;;3.20;;
76176;SDS011;64938;47.696;8.066;2023-08-30T12:27:46;3.50;;;3.30;;
76176;SDS011;64938;47.696;8.066;2023-08-30T12:30:15;3.60;;;3.40;;
76176;SDS011;64938;47.696;8.066;2023-08-30T12:32:43;3.40;;;3.20;;
76176;SDS011;64938;47.696;8.066;2023-08-30T12:35:09;3.63;;;2.63;;
76176;SDS011;64938;47.696;8.066;2023-08-30T12:37:35;3.23;;;2.80;;
76176;SDS011;64938;47.696;8.066;2023-08-30T12:40:01;3.13;;;2.93;;
76176;SDS011;64938;47.696;8.066;2023-08-30T12:42:26;3.90;;;3.00;;
76176;SDS011;64938;47.696;8.066;2023-08-30T12:44:54;3.30;;;3.10;;
76176;SDS011;64938;47.696;8.066;2023-08-30T12:47:22;3.00;;;2.80;;
76176;SDS011;64938;47.696;8.066;2023-08-30T12:49:47;3.10;;;2.90;;
76176;SDS011;64938;47.696;8.066;2023-08-30T12:52:13;3.67;;;3.37;;
76176;SDS011;64938;47.696;8.066;2023-08-30T12:54:39;3.23;;;3.03;;
76176;SDS011;64938;47.696;8.066;2023-08-30T12:57:04;3.30;;;3.03;;
76176;SDS011;64938;47.696;8.066;2023-08-30T12:59:35;2.77;;;2.57;;
76176;SDS011;64938;47.696;8.066;2023-08-30T13:02:00;3.23;;;3.03;;
76176;SDS011;64938;47.696;8.066;2023-08-30T13:04:26;3.17;;;2.97;;
76176;SDS011;64938;47.696;8.066;2023-08-30T13:06:52;3.57;;;3.27;;
76176;SDS011;64938;47.696;8.066;2023-08-30T13:09:17;3.20;;;3.00;;
76176;SDS011;64938;47.696;8.066;2023-08-30T13:11:43;3.90;;;3.60;;
76176;SDS011;64938;47.696;8.066;2023-08-30T13:14:08;3.57;;;3.30;;
76176;SDS011;64938;47.696;8.066;2023-08-30T13:16:37;3.73;;;3.27;;
76176;SDS011;64938;47.696;8.066;2023-08-30T13:19:03;3.30;;;3.10;;
76176;SDS011;64938;47.696;8.066;2023-08-30T13:21:28;3.70;;;3.40;;
76176;SDS011;64938;47.696;8.066;2023-08-30T13:23:57;3.50;;;3.20;;
76176;SDS011;64938;47.696;8.066;2023-08-30T13:26:23;3.53;;;3.23;;
76176;SDS011;64938;47.696;8.066;2023-08-30T13:28:48;4.30;;;4.00;;
76176;SDS011;64938;47.696;8.066;2023-08-30T13:31:14;3.43;;;3.20;;
76176;SDS011;64938;47.696;8.066;2023-08-30T13:33:39;3.90;;;3.63;;
76176;SDS011;64938;47.696;8.066;2023-08-30T13:36:05;3.27;;;3.07;;
76176;SDS011;64938;47.696;8.066;2023-08-30T13:38:31;3.20;;;3.00;;
76176;SDS011;64938;47.696;8.066;2023-08-30T13:40:59;3.97;;;3.77;;
76176;SDS011;64938;47.696;8.066;2023-08-30T13:43:25;3.83;;;3.50;;
76176;SDS011;64938;47.696;8.066;2023-08-30T13:45:56;3.77;;;3.47;;
76176;SDS011;64938;47.696;8.066;2023-08-30T13:48:22;3.90;;;3.60;;
76176;SDS011;64938;47.696;8.066;2023-08-30T13:50:49;4.33;;;4.00;;
76176;SDS011;64938;47.696;8.066;2023-08-30T13:53:15;3.57;;;3.27;;
76176;SDS011;64938;47.696;8.066;2023-08-30T13:55:45;4.50;;;3.50;;
76176;SDS011;64938;47.696;8.066;2023-08-30T13:58:14;3.50;;;3.30;;
76176;SDS011;64938;47.696;8.066;2023-08-30T14:00:42;3.33;;;2.97;;
76176;SDS011;64938;47.696;8.066;2023-08-30T14:03:09;3.90;;;3.60;;
76176;SDS011;64938;47.696;8.066;2023-08-30T14:05:34;3.70;;;3.17;;
76176;SDS011;64938;47.696;8.066;2023-08-30T14:08:01;3.57;;;3.37;;
76176;SDS011;64938;47.696;8.066;2023-08-30T14:10:27;3.63;;;3.43;;
76176;SDS011;64938;47.696;8.066;2023-08-30T14:12:53;4.20;;;3.90;;
76176;SDS011;64938;47.696;8.066;2023-08-30T14:15:24;3.73;;;3.43;;
76176;SDS011;64938;47.696;8.066;2023-08-30T14:17:49;3.53;;;3.23;;
76176;SDS011;64938;47.696;8.066;2023-08-30T14:20:15;4.10;;;3.70;;
76176;SDS011;64938;47.696;8.066;2023-08-30T14:22:41;4.40;;;3.13;;
76176;SDS011;64938;47.696;8.066;2023-08-30T14:25:06;4.73;;;3.70;;
76176;SDS011;64938;47.696;8.066;2023-08-30T14:27:35;4.03;;;3.47;;
76176;SDS011;64938;47.696;8.066;2023-08-30T14:30:01;2.97;;;2.77;;
76176;SDS011;64938;47.696;8.066;2023-08-30T14:32:27;6.93;;;3.43;;
76176;SDS011;64938;47.696;8.066;2023-08-30T14:34:53;3.70;;;2.90;;
76176;SDS011;64938;47.696;8.066;2023-08-30T14:37:18;3.90;;;2.70;;
76176;SDS011;64938;47.696;8.066;2023-08-30T14:39:44;3.77;;;2.60;;
76176;SDS011;64938;47.696;8.066;2023-08-30T14:42:11;3.00;;;2.80;;
76176;SDS011;64938;47.696;8.066;2023-08-30T14:44:37;3.10;;;2.90;;
76176;SDS011;64938;47.696;8.066;2023-08-30T14:47:05;3.97;;;3.67;;
76176;SDS011;64938;47.696;8.066;2023-08-30T14:49:33;4.00;;;3.60;;
76176;SDS011;64938;47.696;8.066;2023-08-30T14:51:59;4.53;;;4.13;;
76176;SDS011;64938;47.696;8.066;2023-08-30T14:54:35;4.17;;;3.77;;